Time;durP1;ratioP1;P1;durP2;ratioP2;P2;SDS_P1;SDS_P2;PMS_P1;PMS_P2;Temp;Humidity;BMP_temperature;BMP_pressure;BME280_temperature;BME280_humidity;BME280_pressure;Samples;Min_cycle;Max_cycle;Signal;HPM_P1;HPM_P2
2023/01/01 00:00:00;;;;;;;140.50;116.80;;;11.70;1.00;;;;;;4992367;28;20188;-68
2023/01/01 00:02:26;;;;;;;148.43;116.63;;;11.70;1.00;;;;;;4997116;28;20215;-67
2023/01/01 00:04:52;;;;;;;139.93;109.63;;;11.70;1.00;;;;;;4990108;28;20421;-68
2023/01/01 00:07:17;;;;;;;120.20;98.57;;;11.60;1.00;;;;;;4994531;28;20201;-68
2023/01/01 00:12:33;;;;;;;82.40;63.33;;;11.50;1.00;;;;;;4949867;28;20195;-67
2023/01/01 00:14:59;;;;;;;71.07;56.37;;;11.50;36.40;;;;;;4987684;28;20514;-65
2023/01/01 00:17:24;;;;;;;64.23;50.60;;;11.50;1.00;;;;;;4988971;28;20594;-67
2023/01/01 00:19:50;;;;;;;50.90;39.70;;;11.50;1.00;;;;;;4993727;28;20185;-66
2023/01/01 00:22:16;;;;;;;48.00;37.97;;;11.50;1.00;;;;;;5000631;28;20215;-67
2023/01/01 00:24:42;;;;;;;49.13;37.87;;;11.50;1.00;;;;;;4999527;28;20917;-65
2023/01/01 00:27:07;;;;;;;47.73;33.23;;;11.50;1.00;;;;;;4991318;28;20465;-66
2023/01/01 00:29:33;;;;;;;40.83;35.13;;;11.50;1.00;;;;;;4990138;28;20180;-64
2023/01/01 00:31:59;;;;;;;47.20;33.17;;;11.50;1.00;;;;;;4986667;28;20197;-66
2023/01/01 00:34:24;;;;;;;60.17;47.70;;;11.50;1.00;;;;;;4988725;28;20593;-66
2023/01/01 00:36:50;;;;;;;59.50;46.73;;;11.40;1.00;;;;;;4992267;28;20534;-66
2023/01/01 00:39:16;;;;;;;47.87;40.83;;;11.30;1.00;;;;;;4985617;28;20661;-65
2023/01/01 00:41:42;;;;;;;52.30;42.77;;;11.20;99.90;;;;;;4992552;28;20200;-65
2023/01/01 00:44:07;;;;;;;50.00;41.97;;;11.20;99.90;;;;;;4986207;28;20498;-66
2023/01/01 00:46:33;;;;;;;57.53;45.90;;;11.20;99.90;;;;;;4987208;28;20544;-65
2023/01/01 00:48:59;;;;;;;50.97;42.63;;;10.90;99.90;;;;;;4995528;28;20441;-66
2023/01/01 00:51:25;;;;;;;58.27;45.70;;;11.00;99.90;;;;;;4989125;28;20264;-67
2023/01/01 00:53:51;;;;;;;54.97;44.50;;;11.00;99.90;;;;;;4986298;28;20523;-66
2023/01/01 00:56:16;;;;;;;65.20;50.23;;;10.90;1.00;;;;;;4987330;28;20778;-66
2023/01/01 00:58:43;;;;;;;59.40;44.20;;;10.60;1.00;;;;;;4997317;28;20204;-65
2023/01/01 01:01:09;;;;;;;71.73;50.20;;;10.80;1.00;;;;;;4997225;28;20180;-65
2023/01/01 01:03:37;;;;;;;64.37;51.00;;;10.90;1.00;;;;;;5008103;28;20790;-64
2023/01/01 01:06:03;;;;;;;70.50;52.47;;;11.00;99.90;;;;;;4978240;28;20303;-64
2023/01/01 01:08:31;;;;;;;64.53;54.10;;;10.90;99.90;;;;;;4992044;28;20478;-64
2023/01/01 01:11:08;;;;;;;73.33;54.47;;;11.00;99.90;;;;;;4985212;28;20209;-63
2023/01/01 01:13:35;;;;;;;72.60;52.77;;;11.00;99.90;;;;;;4992299;28;20446;-64
2023/01/01 01:16:06;;;;;;;65.60;47.80;;;11.00;99.90;;;;;;4991538;28;20455;-64
2023/01/01 01:18:31;;;;;;;60.57;45.27;;;11.10;99.90;;;;;;4999553;28;20502;-63
2023/01/01 01:20:57;;;;;;;53.30;44.97;;;11.00;99.90;;;;;;4989420;28;20433;-63
2023/01/01 01:23:23;;;;;;;57.53;45.40;;;11.20;99.90;;;;;;4993807;28;20309;-63
2023/01/01 01:25:49;;;;;;;53.40;42.30;;;11.20;99.90;;;;;;4989516;28;20205;-63
2023/01/01 01:28:14;;;;;;;57.03;44.10;;;11.30;99.90;;;;;;4995791;28;20275;-65
2023/01/01 01:30:40;;;;;;;71.67;50.47;;;11.30;99.90;;;;;;4997202;28;20181;-65
2023/01/01 01:33:06;;;;;;;75.93;52.83;;;11.20;99.90;;;;;;4993589;28;20218;-66
2023/01/01 01:35:32;;;;;;;64.17;46.60;;;11.20;99.90;;;;;;4990070;28;20212;-67
2023/01/01 01:37:58;;;;;;;66.83;48.70;;;11.10;99.90;;;;;;4997640;28;20523;-67
2023/01/01 01:40:24;;;;;;;58.40;47.37;;;11.20;99.90;;;;;;4988227;28;20213;-66
2023/01/01 01:42:50;;;;;;;54.97;45.27;;;11.20;99.90;;;;;;4996893;28;20499;-67
2023/01/01 01:45:17;;;;;;;57.07;43.63;;;11.10;99.90;;;;;;5007194;28;20196;-67
2023/01/01 01:47:53;;;;;;;58.07;42.70;;;11.10;99.90;;;;;;4993533;28;20916;-67
2023/01/01 01:50:29;;;;;;;56.53;45.33;;;11.10;99.90;;;;;;4993403;28;20411;-66
2023/01/01 01:53:14;;;;;;;45.97;39.10;;;10.90;99.90;;;;;;4995550;28;20820;-67
2023/01/01 01:55:46;;;;;;;50.53;39.07;;;10.90;99.90;;;;;;5000662;28;20463;-64
2023/01/01 01:58:13;;;;;;;45.07;35.27;;;10.90;99.90;;;;;;5003697;28;20416;-66
2023/01/01 02:00:39;;;;;;;40.83;34.20;;;10.90;99.90;;;;;;5000630;28;20845;-66
2023/01/01 02:03:23;;;;;;;40.00;30.60;;;10.90;99.90;;;;;;4996232;28;20562;-65
2023/01/01 02:05:50;;;;;;;40.60;32.27;;;10.90;99.90;;;;;;4990808;28;20908;-66
2023/01/01 02:08:16;;;;;;;37.13;30.90;;;11.00;99.90;;;;;;4992485;28;20432;-66
2023/01/01 02:10:42;;;;;;;39.77;30.67;;;10.90;1.00;;;;;;4988670;28;20458;-66
2023/01/01 02:13:08;;;;;;;34.33;27.00;;;11.00;99.90;;;;;;4992024;28;20442;-67
2023/01/01 02:15:47;;;;;;;35.27;26.43;;;11.10;99.90;;;;;;4990024;28;20439;-67
2023/01/01 02:18:16;;;;;;;34.43;26.63;;;11.10;99.90;;;;;;4993321;28;20478;-66
2023/01/01 02:20:50;;;;;;;34.77;27.40;;;11.10;99.90;;;;;;4992868;28;20408;-65
2023/01/01 02:23:30;;;;;;;30.23;26.93;;;11.00;99.90;;;;;;4992262;28;20826;-65
2023/01/01 02:26:41;;;;;;;34.50;25.97;;;10.90;99.90;;;;;;4989170;28;20467;-65
2023/01/01 02:29:19;;;;;;;33.60;24.20;;;10.80;1.00;;;;;;4987191;28;20440;-66
2023/01/01 02:32:08;;;;;;;35.03;27.27;;;11.00;99.90;;;;;;4996587;28;20492;-66
2023/01/01 02:34:39;;;;;;;37.93;26.23;;;11.00;99.90;;;;;;4973439;28;20417;-65
2023/01/01 02:37:07;;;;;;;28.90;24.17;;;11.00;99.90;;;;;;4973566;28;20437;-66
2023/01/01 02:39:37;;;;;;;32.87;25.70;;;11.00;99.90;;;;;;4980967;28;20430;-65
2023/01/01 02:42:06;;;;;;;30.00;23.30;;;11.00;99.90;;;;;;5000322;28;20484;-65
2023/01/01 02:44:36;;;;;;;38.30;27.00;;;11.00;99.90;;;;;;4992118;28;20426;-65
2023/01/01 02:47:07;;;;;;;33.50;25.40;;;10.90;99.90;;;;;;4992970;28;20475;-66
2023/01/01 02:49:36;;;;;;;32.30;26.27;;;10.80;99.90;;;;;;4990335;28;20475;-65
2023/01/01 02:52:24;;;;;;;37.10;28.03;;;10.70;99.90;;;;;;5006100;28;20439;-65
2023/01/01 02:55:03;;;;;;;31.40;26.57;;;10.40;1.00;;;;;;5008285;28;20437;-65
2023/01/01 02:57:43;;;;;;;34.83;28.43;;;10.40;1.00;;;;;;5012345;28;20400;-65
2023/01/01 03:00:26;;;;;;;32.53;28.10;;;10.00;1.00;;;;;;5008073;28;20501;-66
2023/01/01 03:03:16;;;;;;;35.27;28.63;;;10.20;1.00;;;;;;4997808;28;20973;-66
2023/01/01 03:08:46;;;;;;;36.77;29.10;;;10.30;1.00;;;;;;5002899;28;20831;-64
2023/01/01 03:11:17;;;;;;;35.33;29.50;;;10.20;1.00;;;;;;4993459;28;20418;-65
2023/01/01 03:14:01;;;;;;;37.20;28.17;;;10.30;1.00;;;;;;5008750;28;20447;-66
2023/01/01 03:16:35;;;;;;;33.47;28.93;;;10.30;1.00;;;;;;5000557;28;20489;-66
2023/01/01 03:19:20;;;;;;;35.23;27.47;;;10.20;1.00;;;;;;5011856;28;20487;-67
2023/01/01 03:22:03;;;;;;;35.87;27.13;;;10.30;1.00;;;;;;5011068;28;20982;-67
2023/01/01 03:24:33;;;;;;;42.30;31.87;;;10.30;1.00;;;;;;5001331;28;20774;-67
2023/01/01 03:27:06;;;;;;;39.17;29.93;;;10.10;1.00;;;;;;5032777;22;20574;-67
2023/01/01 03:29:38;;;;;;;44.53;29.07;;;10.00;1.00;;;;;;5011893;28;20400;-67
2023/01/01 03:32:06;;;;;;;32.77;27.70;;;10.20;1.00;;;;;;4993651;28;20756;-68
2023/01/01 03:34:38;;;;;;;35.57;28.40;;;10.30;1.00;;;;;;5019873;28;20461;-68
2023/01/01 03:37:09;;;;;;;36.10;28.13;;;10.40;1.00;;;;;;5013148;28;20450;-68
2023/01/01 03:39:47;;;;;;;37.07;27.83;;;10.30;1.00;;;;;;5011564;28;20483;-68
2023/01/01 03:42:36;;;;;;;33.00;28.63;;;10.40;1.00;;;;;;5011014;28;20458;-66
2023/01/01 03:45:08;;;;;;;34.90;29.10;;;10.40;1.00;;;;;;5018436;28;20747;-68
2023/01/01 03:47:34;;;;;;;32.13;26.90;;;10.40;1.00;;;;;;5031307;28;20410;-68
2023/01/01 03:50:02;;;;;;;42.43;27.80;;;10.30;1.00;;;;;;5031254;28;20544;-68
2023/01/01 03:52:53;;;;;;;36.70;27.00;;;10.30;1.00;;;;;;5030774;28;20805;-67
2023/01/01 03:55:44;;;;;;;38.70;27.33;;;10.30;1.00;;;;;;5011299;28;20415;-67
2023/01/01 03:58:38;;;;;;;37.03;28.43;;;10.10;1.00;;;;;;5021194;28;20407;-68
2023/01/01 04:01:13;;;;;;;40.70;26.47;;;10.00;1.00;;;;;;5022611;28;20441;-69
2023/01/01 04:03:40;;;;;;;35.20;28.77;;;9.90;1.00;;;;;;5031057;28;20468;-66
2023/01/01 04:06:06;;;;;;;34.13;28.03;;;9.60;1.00;;;;;;5028555;28;21237;-69
2023/01/01 04:08:34;;;;;;;34.47;25.73;;;9.70;1.00;;;;;;5012463;28;20415;-67
2023/01/01 04:12:00;;;;;;;37.37;27.43;;;9.70;1.00;;;;;;5011179;28;20407;-66
2023/01/01 04:13:51;;;;;;;42.73;28.40;;;9.90;1.00;;;;;;5011153;28;20403;-66
2023/01/01 04:16:16;;;;;;;34.37;28.70;;;10.10;1.00;;;;;;5011400;28;20955;-66
2023/01/01 04:18:42;;;;;;;38.97;29.73;;;10.00;1.00;;;;;;5011358;28;20179;-67
2023/01/01 04:21:08;;;;;;;35.13;28.10;;;10.10;1.00;;;;;;5010544;28;20179;-67
2023/01/01 04:23:33;;;;;;;42.70;28.50;;;10.00;1.00;;;;;;5012082;28;20207;-64
2023/01/01 04:25:59;;;;;;;38.30;29.77;;;10.10;1.00;;;;;;5012770;28;20192;-67
2023/01/01 04:28:24;;;;;;;36.77;27.90;;;10.10;1.00;;;;;;5012663;28;20172;-65
2023/01/01 04:30:51;;;;;;;37.13;29.50;;;10.10;1.00;;;;;;5011315;28;20195;-68
2023/01/01 04:33:16;;;;;;;34.73;28.63;;;10.10;1.00;;;;;;5011732;28;20160;-66
2023/01/01 04:35:42;;;;;;;34.17;26.60;;;10.20;1.00;;;;;;5011265;28;20769;-68
2023/01/01 04:38:12;;;;;;;31.10;27.73;;;10.20;1.00;;;;;;5011305;28;20219;-65
2023/01/01 04:40:38;;;;;;;38.53;28.90;;;10.10;1.00;;;;;;5010685;28;20187;-67
2023/01/01 04:43:04;;;;;;;33.63;27.77;;;10.10;1.00;;;;;;5010595;28;20455;-67
2023/01/01 04:45:30;;;;;;;39.57;28.87;;;10.10;1.00;;;;;;5010245;28;20685;-68
2023/01/01 04:47:55;;;;;;;37.93;28.50;;;10.10;1.00;;;;;;5009987;28;20183;-67
2023/01/01 04:50:21;;;;;;;37.97;27.07;;;10.10;1.00;;;;;;5010542;28;20276;-68
2023/01/01 04:52:50;;;;;;;35.47;27.77;;;10.00;1.00;;;;;;5010125;28;20184;-67
2023/01/01 04:55:16;;;;;;;38.60;29.40;;;10.00;1.00;;;;;;5010205;28;20187;-67
2023/01/01 04:57:41;;;;;;;35.57;26.10;;;9.90;1.00;;;;;;5010653;28;20423;-70
2023/01/01 05:00:08;;;;;;;33.57;27.00;;;9.90;1.00;;;;;;5009974;28;20403;-66
2023/01/01 05:02:33;;;;;;;33.50;25.37;;;9.60;1.00;;;;;;5010099;28;20200;-68
2023/01/01 05:04:59;;;;;;;36.00;28.13;;;9.80;1.00;;;;;;5010393;28;20930;-67
2023/01/01 05:07:25;;;;;;;31.27;24.00;;;9.70;1.00;;;;;;5010289;28;20299;-68
2023/01/01 05:09:50;;;;;;;29.33;23.50;;;9.70;1.00;;;;;;5010624;28;20236;-67
2023/01/01 05:12:16;;;;;;;31.87;22.70;;;9.40;1.00;;;;;;4992317;28;20184;-67
2023/01/01 05:14:42;;;;;;;27.03;22.37;;;9.60;1.00;;;;;;5009781;28;20172;-67
2023/01/01 05:17:07;;;;;;;27.93;21.57;;;9.70;1.00;;;;;;5010323;28;20187;-66
2023/01/01 05:19:33;;;;;;;25.33;22.20;;;9.60;1.00;;;;;;5010219;28;20165;-67
2023/01/01 05:21:59;;;;;;;25.77;20.47;;;9.50;1.00;;;;;;5009377;28;20250;-68
2023/01/01 05:24:24;;;;;;;23.40;19.60;;;9.70;1.00;;;;;;5010341;28;20550;-67
2023/01/01 05:26:50;;;;;;;23.53;18.20;;;9.70;1.00;;;;;;5009863;28;20556;-67
2023/01/01 05:29:16;;;;;;;27.77;20.00;;;9.90;1.00;;;;;;5009739;28;20262;-67
2023/01/01 05:31:41;;;;;;;28.17;19.30;;;9.90;1.00;;;;;;5009919;28;20171;-66
2023/01/01 05:34:07;;;;;;;33.57;25.07;;;10.00;1.00;;;;;;5010230;28;20208;-68
2023/01/01 05:36:37;;;;;;;28.80;20.70;;;10.00;1.00;;;;;;5010221;28;20195;-68
2023/01/01 05:39:07;;;;;;;29.80;22.13;;;10.10;1.00;;;;;;5009984;28;20173;-69
2023/01/01 05:41:36;;;;;;;26.70;19.63;;;10.00;1.00;;;;;;5009569;28;20907;-69
2023/01/01 05:44:04;;;;;;;26.90;20.60;;;10.00;1.00;;;;;;5009335;28;20450;-68
2023/01/01 05:46:30;;;;;;;28.70;21.13;;;10.00;1.00;;;;;;5010156;28;20650;-69
2023/01/01 05:48:55;;;;;;;24.53;17.33;;;10.20;1.00;;;;;;5009947;28;20411;-69
2023/01/01 05:51:23;;;;;;;27.50;19.17;;;10.20;1.00;;;;;;5009424;28;20708;-69
2023/01/01 05:53:50;;;;;;;21.20;18.00;;;10.20;1.00;;;;;;5009863;28;20179;-68
2023/01/01 05:56:16;;;;;;;20.40;16.57;;;10.30;1.00;;;;;;5010067;28;20427;-69
2023/01/01 05:58:43;;;;;;;22.30;17.13;;;10.30;1.00;;;;;;5015747;28;20431;-68
2023/01/01 06:01:13;;;;;;;26.37;18.30;;;10.30;1.00;;;;;;5022121;28;20403;-68
2023/01/01 06:03:39;;;;;;;20.73;17.70;;;10.20;1.00;;;;;;5014306;28;20458;-67
2023/01/01 06:06:11;;;;;;;21.37;16.80;;;10.20;1.00;;;;;;5013720;28;20462;-67
2023/01/01 06:08:37;;;;;;;19.90;16.73;;;10.20;1.00;;;;;;5013573;28;20400;-67
2023/01/01 06:11:05;;;;;;;21.57;17.80;;;10.10;1.00;;;;;;5012655;28;20410;-68
2023/01/01 06:13:31;;;;;;;26.53;19.30;;;10.10;1.00;;;;;;5013354;28;20411;-70
2023/01/01 06:15:59;;;;;;;24.13;18.77;;;10.00;1.00;;;;;;5012834;28;20598;-68
2023/01/01 06:18:27;;;;;;;21.60;18.17;;;10.00;1.00;;;;;;5013542;28;20927;-69
2023/01/01 06:20:53;;;;;;;23.93;18.97;;;10.00;1.00;;;;;;5012394;28;20473;-68
2023/01/01 06:23:19;;;;;;;25.10;17.80;;;9.80;1.00;;;;;;5013276;28;20463;-68
2023/01/01 06:25:45;;;;;;;27.00;18.23;;;9.70;1.00;;;;;;5013094;28;20423;-68
2023/01/01 06:28:10;;;;;;;26.13;18.60;;;9.80;1.00;;;;;;5013174;28;20169;-69
2023/01/01 06:30:36;;;;;;;24.03;19.43;;;9.80;1.00;;;;;;5012020;28;20172;-68
2023/01/01 06:33:03;;;;;;;28.57;20.30;;;9.70;1.00;;;;;;5013116;28;20171;-67
2023/01/01 06:35:29;;;;;;;27.77;20.73;;;9.70;1.00;;;;;;5015414;28;21006;-68
2023/01/01 06:37:58;;;;;;;21.97;17.93;;;9.70;1.00;;;;;;5014401;28;20404;-67
2023/01/01 06:40:24;;;;;;;24.90;19.97;;;9.70;1.00;;;;;;5016449;28;20986;-68
2023/01/01 06:42:49;;;;;;;32.33;18.50;;;9.60;1.00;;;;;;5012807;28;20455;-69
2023/01/01 06:45:15;;;;;;;40.87;19.43;;;9.70;1.00;;;;;;5012345;28;20223;-68
2023/01/01 06:47:41;;;;;;;24.73;18.63;;;9.70;1.00;;;;;;4995181;28;20173;-69
2023/01/01 06:50:07;;;;;;;29.23;19.17;;;9.70;1.00;;;;;;5012609;28;20583;-66
2023/01/01 06:52:33;;;;;;;24.33;17.60;;;9.70;1.00;;;;;;5012419;28;20181;-69
2023/01/01 06:54:58;;;;;;;43.53;20.30;;;9.70;1.00;;;;;;5012565;28;20743;-68
2023/01/01 06:57:24;;;;;;;26.43;20.03;;;9.70;1.00;;;;;;5012753;28;20192;-67
2023/01/01 06:59:50;;;;;;;27.53;19.87;;;9.80;1.00;;;;;;5012151;28;20171;-69
2023/01/01 07:02:16;;;;;;;27.73;18.53;;;9.80;1.00;;;;;;5012245;28;20207;-69
2023/01/01 07:04:41;;;;;;;24.93;18.40;;;9.80;1.00;;;;;;5012411;28;20192;-67
2023/01/01 07:07:07;;;;;;;24.10;17.40;;;9.80;1.00;;;;;;5012110;28;20240;-67
2023/01/01 07:09:33;;;;;;;25.23;19.00;;;9.80;1.00;;;;;;5011676;28;20259;-70
2023/01/01 07:11:59;;;;;;;26.23;17.90;;;9.80;1.00;;;;;;5011932;28;20188;-69
2023/01/01 07:14:24;;;;;;;24.60;17.90;;;9.80;1.00;;;;;;5012182;28;20196;-70
2023/01/01 07:16:50;;;;;;;23.03;17.30;;;9.80;1.00;;;;;;5012379;28;20200;-67
2023/01/01 07:19:15;;;;;;;22.60;17.40;;;9.80;1.00;;;;;;5011846;28;20711;-68
2023/01/01 07:21:51;;;;;;;20.17;17.10;;;9.80;1.00;;;;;;5011906;28;20732;-66
2023/01/01 07:24:17;;;;;;;22.60;18.13;;;9.80;1.00;;;;;;5012048;28;20204;-69
2023/01/01 07:26:44;;;;;;;21.67;17.53;;;9.90;1.00;;;;;;5011613;28;20521;-68
2023/01/01 07:29:09;;;;;;;24.67;18.43;;;10.00;1.00;;;;;;5011254;28;20854;-68
2023/01/01 07:31:37;;;;;;;21.40;17.53;;;10.30;99.90;;;;;;5011430;28;20407;-68
2023/01/01 07:34:04;;;;;;;21.33;17.07;;;10.50;99.90;;;;;;5011904;28;20199;-68
2023/01/01 07:36:30;;;;;;;21.67;17.47;;;10.80;99.90;;;;;;5011970;28;20489;-66
2023/01/01 07:38:56;;;;;;;22.03;17.67;;;11.60;99.90;;;;;;5012096;28;20815;-68
2023/01/01 07:41:21;;;;;;;20.37;14.70;;;12.40;99.90;;;;;;5011516;28;20180;-69
2023/01/01 07:43:47;;;;;;;22.07;15.87;;;13.20;1.00;;;;;;5012541;28;20214;-68
2023/01/01 07:46:15;;;;;;;17.47;14.83;;;13.70;99.90;;;;;;5012500;28;20251;-69
2023/01/01 07:48:41;;;;;;;15.63;13.53;;;14.10;7.20;;;;;;5012190;28;20176;-69
2023/01/01 07:51:07;;;;;;;16.93;13.67;;;14.80;1.00;;;;;;5011524;28;20419;-69
2023/01/01 07:53:33;;;;;;;26.50;15.43;;;15.40;1.00;;;;;;5011874;28;20495;-69
2023/01/01 07:55:58;;;;;;;16.80;13.70;;;16.00;1.00;;;;;;5011295;28;20192;-68
2023/01/01 07:58:24;;;;;;;19.73;15.27;;;15.60;1.00;;;;;;5011627;28;20176;-68
2023/01/01 08:00:50;;;;;;;17.90;14.90;;;15.80;1.00;;;;;;5010494;28;20165;-69
2023/01/01 08:03:16;;;;;;;22.73;13.87;;;15.40;1.00;;;;;;5011274;28;20196;-69
2023/01/01 08:05:41;;;;;;;54.47;19.90;;;15.80;1.00;;;;;;5016242;28;20237;-67
2023/01/01 08:08:08;;;;;;;16.83;14.33;;;16.10;1.00;;;;;;5026633;28;20171;-68
2023/01/01 08:10:34;;;;;;;20.03;14.70;;;15.50;1.00;;;;;;5029563;28;20307;-69
2023/01/01 08:13:01;;;;;;;34.47;16.07;;;15.50;1.00;;;;;;5012226;28;20415;-70
2023/01/01 08:15:28;;;;;;;16.90;13.80;;;15.40;1.00;;;;;;5011688;28;20549;-67
2023/01/01 08:18:02;;;;;;;18.90;15.53;;;15.20;1.00;;;;;;5009785;28;20780;-68
2023/01/01 08:20:32;;;;;;;15.80;14.20;;;15.40;1.00;;;;;;5019237;28;20842;-69
2023/01/01 08:22:57;;;;;;;29.33;15.93;;;15.00;1.00;;;;;;5021222;28;20494;-67
2023/01/01 08:25:23;;;;;;;19.63;14.90;;;15.00;1.00;;;;;;5018038;28;20942;-67
2023/01/01 08:27:49;;;;;;;18.10;15.57;;;15.00;1.00;;;;;;5010877;28;20176;-69
2023/01/01 08:30:15;;;;;;;29.23;16.07;;;15.00;1.00;;;;;;5009889;28;20204;-68
2023/01/01 08:32:41;;;;;;;17.20;12.67;;;16.10;1.00;;;;;;5010128;28;20196;-68
2023/01/01 08:35:07;;;;;;;16.30;14.20;;;17.10;99.90;;;;;;4995268;28;20453;-67
2023/01/01 08:37:33;;;;;;;15.27;13.67;;;18.40;99.90;;;;;;5017132;28;20604;-67
2023/01/01 08:39:59;;;;;;;14.80;12.80;;;17.90;99.90;;;;;;5010798;28;20424;-68
2023/01/01 08:42:24;;;;;;;18.33;13.03;;;18.80;99.90;;;;;;5010233;28;20265;-68
2023/01/01 08:44:50;;;;;;;15.17;10.90;;;19.10;99.90;;;;;;5009771;28;20281;-69
2023/01/01 08:47:21;;;;;;;14.80;13.30;;;18.90;99.90;;;;;;5021786;28;20286;-67
2023/01/01 08:49:47;;;;;;;38.70;13.77;;;17.80;99.90;;;;;;5030349;28;20180;-68
2023/01/01 08:52:13;;;;;;;14.80;13.20;;;18.40;99.90;;;;;;5029944;28;20722;-68
2023/01/01 08:54:39;;;;;;;13.30;11.90;;;18.70;99.90;;;;;;5030093;28;20640;-68
2023/01/01 08:57:05;;;;;;;16.40;12.63;;;18.80;99.90;;;;;;5030757;28;20429;-68
2023/01/01 08:59:31;;;;;;;62.20;17.10;;;19.70;99.90;;;;;;5023662;28;20176;-67
2023/01/01 09:01:58;;;;;;;33.03;14.33;;;20.80;99.90;;;;;;5017110;28;20934;-67
2023/01/01 09:04:24;;;;;;;19.47;12.30;;;21.20;99.90;;;;;;5016768;28;20650;-67
2023/01/01 09:06:50;;;;;;;15.67;12.87;;;21.50;99.90;;;;;;5022286;28;20682;-68
2023/01/01 09:09:16;;;;;;;13.87;12.40;;;21.50;99.90;;;;;;5030573;28;20171;-67
2023/01/01 09:11:50;;;;;;;12.60;11.40;;;21.50;99.90;;;;;;5029766;28;20779;-66
2023/01/01 09:14:16;;;;;;;13.40;12.00;;;20.90;99.90;;;;;;5024966;28;20174;-67
2023/01/01 09:16:42;;;;;;;41.63;15.00;;;20.40;99.90;;;;;;5016152;28;20463;-68
2023/01/01 09:19:07;;;;;;;16.50;14.03;;;20.10;99.90;;;;;;5014205;28;20191;-68
2023/01/01 09:21:33;;;;;;;22.60;13.30;;;19.60;99.90;;;;;;5010009;28;20645;-68
2023/01/01 09:23:59;;;;;;;13.67;11.47;;;19.00;99.90;;;;;;5009677;28;20203;-66
2023/01/01 09:26:24;;;;;;;13.30;11.90;;;18.60;99.90;;;;;;5042929;22;20559;-63
2023/01/01 09:28:50;;;;;;;14.37;11.90;;;18.30;99.90;;;;;;5029695;28;20163;-63
2023/01/01 09:31:16;;;;;;;15.03;13.43;;;18.00;99.90;;;;;;5028610;28;20570;-62
2023/01/01 09:33:41;;;;;;;12.80;11.43;;;17.00;99.90;;;;;;5020670;28;20195;-63
2023/01/01 09:36:29;;;;;;;13.30;12.00;;;17.00;99.90;;;;;;5021801;28;20199;-63
2023/01/01 09:38:56;;;;;;;26.43;14.17;;;16.50;99.90;;;;;;5013791;28;20640;-63
2023/01/01 09:41:24;;;;;;;13.20;11.40;;;16.40;99.90;;;;;;5013164;28;20415;-63
2023/01/01 09:44:21;;;;;;;15.10;13.50;;;16.20;99.90;;;;;;5012106;28;20533;-63
2023/01/01 09:46:47;;;;;;;14.03;11.33;;;16.10;99.90;;;;;;5011316;28;20458;-63
2023/01/01 09:49:36;;;;;;;15.97;11.40;;;16.10;99.90;;;;;;5016622;28;21017;-64
2023/01/01 09:52:04;;;;;;;15.17;12.50;;;16.40;99.90;;;;;;5013325;28;20438;-63
2023/01/01 09:54:39;;;;;;;17.40;12.37;;;16.70;99.90;;;;;;5024497;28;20770;-64
2023/01/01 09:57:10;;;;;;;12.53;10.10;;;16.50;99.90;;;;;;5005142;28;20501;-64
2023/01/01 09:59:36;;;;;;;15.20;12.00;;;16.60;99.90;;;;;;5017914;28;20425;-64
2023/01/01 10:02:32;;;;;;;11.70;10.40;;;16.60;99.90;;;;;;5013673;28;20407;-65
2023/01/01 10:05:22;;;;;;;14.30;10.37;;;16.50;99.90;;;;;;5012299;28;20180;-64
2023/01/01 10:08:07;;;;;;;14.43;9.93;;;16.00;99.90;;;;;;5019411;28;20455;-64
2023/01/01 10:10:45;;;;;;;11.03;9.83;;;15.90;99.90;;;;;;5020229;28;20749;-64
2023/01/01 10:13:35;;;;;;;12.00;9.70;;;15.50;99.90;;;;;;5032966;28;20497;-64
2023/01/01 10:16:23;;;;;;;20.37;10.10;;;15.60;99.90;;;;;;5025318;28;20457;-64
2023/01/01 10:19:04;;;;;;;10.80;8.90;;;16.20;99.90;;;;;;5001003;28;20833;-64
2023/01/01 10:21:36;;;;;;;10.03;8.40;;;16.50;99.90;;;;;;5019330;28;20501;-64
2023/01/01 10:24:24;;;;;;;10.90;8.70;;;16.60;99.90;;;;;;5029818;28;20512;-64
2023/01/01 10:26:52;;;;;;;16.53;9.57;;;16.50;99.90;;;;;;5013468;28;20554;-65
2023/01/01 10:29:28;;;;;;;15.90;7.90;;;16.70;99.90;;;;;;5012279;28;20740;-65
2023/01/01 10:31:56;;;;;;;8.87;7.97;;;16.90;99.90;;;;;;5012300;28;20398;-65
2023/01/01 10:34:24;;;;;;;14.23;8.93;;;17.00;99.90;;;;;;5012365;28;20422;-65
2023/01/01 10:36:56;;;;;;;13.50;7.67;;;16.70;99.90;;;;;;5011681;28;20464;-65
2023/01/01 10:39:22;;;;;;;12.57;7.57;;;16.80;99.90;;;;;;5012904;28;20400;-66
2023/01/01 10:41:48;;;;;;;11.13;8.27;;;16.80;99.90;;;;;;5011823;28;20753;-65
2023/01/01 10:44:20;;;;;;;23.07;8.30;;;16.80;99.90;;;;;;5010656;28;20455;-66
2023/01/01 10:46:55;;;;;;;12.90;7.20;;;16.70;99.90;;;;;;5011679;28;20263;-66
2023/01/01 10:49:21;;;;;;;30.53;9.07;;;16.40;99.90;;;;;;5016596;28;20845;-67
2023/01/01 10:51:51;;;;;;;26.43;8.73;;;16.60;99.90;;;;;;5019707;28;20453;-65
2023/01/01 10:54:26;;;;;;;19.40;9.10;;;16.70;99.90;;;;;;5012053;28;20226;-65
2023/01/01 10:56:51;;;;;;;10.43;7.73;;;16.80;99.90;;;;;;5011766;28;20843;-66
2023/01/01 10:59:38;;;;;;;32.10;9.60;;;16.70;99.90;;;;;;5019689;28;20605;-66
2023/01/01 11:02:24;;;;;;;54.27;12.97;;;16.70;99.90;;;;;;5011385;28;20664;-66
2023/01/01 11:04:52;;;;;;;57.57;12.60;;;16.80;99.90;;;;;;5011768;28;20404;-67
2023/01/01 11:07:30;;;;;;;36.00;9.13;;;16.70;99.90;;;;;;5019213;28;20570;-65
2023/01/01 11:10:00;;;;;;;27.47;7.60;;;16.60;99.90;;;;;;5028888;28;20422;-66
2023/01/01 11:12:32;;;;;;;13.63;6.60;;;16.70;99.90;;;;;;5030869;28;20406;-66
2023/01/01 11:14:58;;;;;;;26.70;8.30;;;16.90;99.90;;;;;;5016745;28;20796;-66
2023/01/01 11:17:27;;;;;;;71.90;15.47;;;17.10;99.90;;;;;;5015874;28;20464;-66
2023/01/01 11:19:54;;;;;;;44.87;9.30;;;17.30;99.90;;;;;;5015068;28;20414;-66
2023/01/01 11:22:50;;;;;;;9.97;7.07;;;17.60;99.90;;;;;;5014249;28;20813;-66
2023/01/01 11:25:18;;;;;;;48.30;9.83;;;17.70;99.90;;;;;;5028729;28;20823;-67
2023/01/01 11:27:45;;;;;;;32.27;8.77;;;17.60;99.90;;;;;;5018392;28;20442;-66
2023/01/01 11:30:37;;;;;;;26.23;7.27;;;17.80;99.90;;;;;;5011586;28;20477;-66
2023/01/01 11:33:04;;;;;;;12.27;6.90;;;17.80;99.90;;;;;;5018603;28;20446;-65
2023/01/01 11:35:32;;;;;;;25.27;7.03;;;17.70;99.90;;;;;;5028335;28;20407;-65
2023/01/01 11:37:58;;;;;;;33.40;7.87;;;17.70;99.90;;;;;;5019546;28;20411;-64
2023/01/01 11:40:38;;;;;;;27.60;7.40;;;17.80;99.90;;;;;;5010775;28;20415;-64
2023/01/01 11:43:06;;;;;;;27.63;7.13;;;18.00;99.90;;;;;;5011372;28;20978;-68
2023/01/01 11:45:40;;;;;;;14.53;6.33;;;18.20;99.90;;;;;;5010356;28;20430;-66
2023/01/01 11:48:24;;;;;;;14.20;5.47;;;18.40;99.90;;;;;;5018468;28;20430;-67
2023/01/01 11:50:59;;;;;;;92.40;18.20;;;18.50;99.90;;;;;;5018983;28;20406;-65
2023/01/01 11:53:25;;;;;;;54.53;11.67;;;18.50;99.90;;;;;;5011301;28;20481;-66
2023/01/01 11:56:14;;;;;;;74.70;13.60;;;18.50;99.90;;;;;;5010249;28;20534;-63
2023/01/01 11:58:43;;;;;;;59.50;8.30;;;18.50;99.90;;;;;;5018984;28;20173;-65
2023/01/01 12:01:18;;;;;;;51.40;9.10;;;18.40;99.90;;;;;;5010894;28;20403;-65
2023/01/01 12:03:50;;;;;;;107.43;16.50;;;18.20;99.90;;;;;;5013026;28;20501;-65
2023/01/01 12:06:38;;;;;;;29.90;7.20;;;18.30;99.90;;;;;;5013917;28;20810;-65
2023/01/01 12:09:16;;;;;;;45.77;8.20;;;18.40;99.90;;;;;;5025131;28;20402;-64
2023/01/01 12:11:51;;;;;;;17.13;5.43;;;18.40;99.90;;;;;;5011726;28;20423;-64
2023/01/01 12:14:35;;;;;;;11.90;4.73;;;18.50;99.90;;;;;;5020013;28;21079;-65
2023/01/01 12:17:27;;;;;;;9.10;4.40;;;18.40;99.90;;;;;;5012267;28;20454;-65
2023/01/01 12:20:03;;;;;;;8.50;4.93;;;18.10;99.90;;;;;;5013552;28;20585;-65
2023/01/01 12:22:30;;;;;;;8.40;3.90;;;18.10;99.90;;;;;;5017907;28;20546;-65
2023/01/01 12:24:56;;;;;;;9.43;3.80;;;18.10;99.90;;;;;;5010542;28;20399;-67
2023/01/01 12:27:46;;;;;;;7.23;4.10;;;18.00;99.90;;;;;;5009522;28;20482;-65
2023/01/01 12:30:20;;;;;;;6.20;3.87;;;17.90;99.90;;;;;;5018318;28;20486;-65
2023/01/01 12:33:27;;;;;;;13.27;4.17;;;18.00;99.90;;;;;;5014435;28;20411;-65
2023/01/01 12:36:23;;;;;;;16.07;5.33;;;17.90;99.90;;;;;;4946545;28;20462;-65
2023/01/01 12:39:26;;;;;;;92.80;13.43;;;18.00;99.90;;;;;;5009337;28;20438;-65
2023/01/01 12:42:07;;;;;;;63.30;10.93;;;18.10;99.90;;;;;;5022466;28;20815;-65
2023/01/01 12:44:47;;;;;;;46.80;9.57;;;18.20;99.90;;;;;;5029206;28;20413;-65
2023/01/01 12:47:40;;;;;;;32.77;6.40;;;18.20;99.90;;;;;;5027584;28;20418;-66
2023/01/01 12:50:18;;;;;;;13.40;5.37;;;18.20;99.90;;;;;;5019940;28;20396;-63
2023/01/01 12:53:07;;;;;;;10.40;4.43;;;18.20;99.90;;;;;;5028651;28;20493;-63
2023/01/01 12:55:51;;;;;;;14.50;3.50;;;18.20;99.90;;;;;;4964054;28;20538;-63
2023/01/01 12:58:25;;;;;;;7.80;4.73;;;18.00;99.90;;;;;;5018684;28;20927;-72